Boddam, United Kingdom
Current Conditions -  °F | °C
As of 2:50 PM on Tuesday 21 Oct 2014 (Local Time) from EGPD Reporting Station
Rain Showers Rain Showers  
Wind Chill: 40°   Ceiling: Unl
Heat Index: 48°   Visibility: 6mi
Dew Point: 41°   Wind: 29mph
Humidity: 76%   Direction: 310°NW
Pressure: 29.35"   Gusts: NA
Location:  57.47°N, 1.78°W
Report Text: EGPD 211350Z 31025KT 9999 VCSH SCT022 SCT035 09/05 Q0994 NOSIG
Loading
Personal Weather Stations






























Interactive Weather Map
Tropical Storm Tracking
New forecast layout! Learn more

10-Day Weather Forecast

Advertisements
Track Severe Weather on mobile